Time;durP1;ratioP1;P1;durP2;ratioP2;P2;SDS_P1;SDS_P2;PMS_P1;PMS_P2;Temp;Humidity;BMP_temperature;BMP_pressure;BME280_temperature;BME280_humidity;BME280_pressure;Samples;Min_cycle;Max_cycle;Signal;HPM_P1;HPM_P2
2021/08/22 00:01:38;;;;;;;8.97;8.17;;;19.90;99.90;;;;;;5090975;28;21047;-39
2021/08/22 00:04:04;;;;;;;9.87;8.93;;;19.80;99.90;;;;;;5126814;28;20191;-41
2021/08/22 00:06:29;;;;;;;8.37;7.63;;;19.80;99.90;;;;;;5126702;28;20274;-40
2021/08/22 00:08:55;;;;;;;11.20;10.20;;;19.80;99.90;;;;;;5119104;28;20488;-42
2021/08/22 00:11:21;;;;;;;9.67;8.43;;;19.80;99.90;;;;;;5103939;28;20191;-40
2021/08/22 00:13:46;;;;;;;9.17;8.37;;;19.80;99.90;;;;;;5116270;28;20248;-40
2021/08/22 00:16:12;;;;;;;10.23;9.33;;;19.80;99.90;;;;;;5105867;28;20184;-41
2021/08/22 00:18:37;;;;;;;10.33;9.43;;;19.80;99.90;;;;;;5125651;28;20179;-42
2021/08/22 00:21:03;;;;;;;9.33;8.43;;;19.80;99.90;;;;;;5126177;28;20206;-43
2021/08/22 00:23:29;;;;;;;11.87;9.00;;;19.70;99.90;;;;;;5120511;28;20696;-40
2021/08/22 00:25:55;;;;;;;10.40;9.50;;;19.80;99.90;;;;;;5121747;28;20680;-44
2021/08/22 00:28:20;;;;;;;9.70;8.90;;;19.70;99.90;;;;;;5126286;28;20210;-41
2021/08/22 00:30:46;;;;;;;11.00;10.00;;;19.70;99.90;;;;;;5107290;28;20762;-41
2021/08/22 00:33:12;;;;;;;13.53;9.67;;;19.70;99.90;;;;;;5126167;28;20229;-40
2021/08/22 00:35:38;;;;;;;10.20;9.30;;;19.70;99.90;;;;;;5126359;28;20186;-40
2021/08/22 00:38:03;;;;;;;12.03;9.60;;;19.70;99.90;;;;;;5127371;27;20194;-42
2021/08/22 00:40:29;;;;;;;9.20;8.50;;;19.70;99.90;;;;;;5118785;27;20204;-40
2021/08/22 00:42:55;;;;;;;9.43;8.53;;;19.70;99.90;;;;;;5129756;27;20199;-40
2021/08/22 00:45:21;;;;;;;9.63;8.63;;;19.70;99.90;;;;;;5130051;27;20685;-40
2021/08/22 00:47:47;;;;;;;8.50;7.70;;;19.70;99.90;;;;;;5129730;27;20191;-39
2021/08/22 00:50:20;;;;;;;7.20;6.50;;;19.60;99.90;;;;;;5129488;27;20191;-45
2021/08/22 00:52:47;;;;;;;7.20;6.50;;;19.60;99.90;;;;;;5129661;27;20456;-40
2021/08/22 00:55:14;;;;;;;7.27;6.30;;;19.60;99.90;;;;;;5123783;27;20436;-41
2021/08/22 00:57:40;;;;;;;6.90;6.30;;;19.50;99.90;;;;;;5123504;27;20409;-45
2021/08/22 01:00:11;;;;;;;7.77;6.97;;;19.50;99.90;;;;;;5129159;27;20424;-43
2021/08/22 01:03:12;;;;;;;7.03;6.33;;;19.50;99.90;;;;;;5129416;27;20179;-43
2021/08/22 01:05:49;;;;;;;6.70;6.10;;;19.40;99.90;;;;;;5129589;27;20444;-41
2021/08/22 01:08:29;;;;;;;8.03;6.47;;;19.40;99.90;;;;;;5128627;27;20432;-45
2021/08/22 01:11:21;;;;;;;6.93;6.33;;;19.40;99.90;;;;;;5121195;27;20416;-39
2021/08/22 01:13:57;;;;;;;9.13;6.50;;;19.40;99.90;;;;;;5111521;27;20859;-41
2021/08/22 01:16:26;;;;;;;6.80;6.20;;;19.40;99.90;;;;;;5108781;28;20405;-41
2021/08/22 01:18:55;;;;;;;5.87;5.27;;;19.40;99.90;;;;;;5126082;27;20439;-43
2021/08/22 01:21:22;;;;;;;6.40;5.90;;;19.40;99.90;;;;;;5129402;27;20408;-43
2021/08/22 01:23:57;;;;;;;6.10;4.97;;;19.30;99.90;;;;;;5124355;27;20524;-40
2021/08/22 01:26:29;;;;;;;5.10;4.70;;;19.30;99.90;;;;;;5125489;27;20412;-40
2021/08/22 01:28:58;;;;;;;4.90;4.40;;;19.30;99.90;;;;;;5128171;27;20424;-41
2021/08/22 01:31:39;;;;;;;4.13;3.83;;;19.30;99.90;;;;;;5128970;27;20465;-43
2021/08/22 01:34:05;;;;;;;5.03;3.90;;;19.30;99.90;;;;;;5129035;27;20456;-40
2021/08/22 01:36:31;;;;;;;4.70;4.30;;;19.30;99.90;;;;;;5128836;27;20943;-44
2021/08/22 01:38:57;;;;;;;5.23;4.77;;;19.30;99.90;;;;;;5122405;27;20602;-40
2021/08/22 01:41:24;;;;;;;4.00;3.60;;;19.20;99.90;;;;;;5119592;27;20412;-41
2021/08/22 01:43:52;;;;;;;4.60;3.80;;;19.20;99.90;;;;;;5128715;27;20203;-43
2021/08/22 01:46:35;;;;;;;3.63;3.33;;;19.20;99.90;;;;;;5128569;27;20417;-40
2021/08/22 01:49:03;;;;;;;4.30;3.87;;;19.10;99.90;;;;;;5126968;27;20424;-43
2021/08/22 01:51:30;;;;;;;4.17;3.77;;;19.10;99.90;;;;;;5128333;27;20445;-39
2021/08/22 01:54:00;;;;;;;3.43;3.13;;;19.10;99.90;;;;;;5123866;27;20835;-41
2021/08/22 01:56:28;;;;;;;2.80;2.60;;;19.00;99.90;;;;;;5117303;27;20435;-42
2021/08/22 01:58:53;;;;;;;3.30;3.00;;;19.00;99.90;;;;;;5127673;27;20424;-40
2021/08/22 02:01:19;;;;;;;4.80;4.30;;;19.00;99.90;;;;;;5128350;27;20420;-45
2021/08/22 02:03:56;;;;;;;3.50;3.03;;;19.00;99.90;;;;;;5128722;27;20290;-40
2021/08/22 02:06:35;;;;;;;3.40;3.10;;;19.00;99.90;;;;;;5128420;27;20770;-45
2021/08/22 02:09:05;;;;;;;11.90;8.57;;;18.90;99.90;;;;;;5123492;27;20441;-40
2021/08/22 02:11:50;;;;;;;4.67;3.90;;;18.90;99.90;;;;;;5123514;27;20484;-41
2021/08/22 02:14:19;;;;;;;3.53;3.23;;;18.90;99.90;;;;;;5124709;27;20789;-40
2021/08/22 02:16:51;;;;;;;3.30;3.00;;;18.80;99.90;;;;;;5128109;27;20914;-42
2021/08/22 02:19:18;;;;;;;4.30;3.07;;;18.80;99.90;;;;;;5108927;27;20424;-43
2021/08/22 02:21:45;;;;;;;4.20;3.20;;;18.80;99.90;;;;;;5127821;27;20511;-41
2021/08/22 02:24:11;;;;;;;3.90;3.50;;;18.80;99.90;;;;;;5123184;27;20437;-43
2021/08/22 02:26:37;;;;;;;6.67;4.60;;;18.80;99.90;;;;;;5120330;27;20776;-40
2021/08/22 02:29:03;;;;;;;3.80;3.50;;;18.80;99.90;;;;;;5126096;27;20419;-40
2021/08/22 02:31:29;;;;;;;5.60;5.10;;;18.80;99.90;;;;;;5127881;27;20429;-43
2021/08/22 02:33:56;;;;;;;3.53;3.10;;;18.80;99.90;;;;;;5127874;27;20190;-40
2021/08/22 02:36:22;;;;;;;2.93;2.63;;;18.80;99.90;;;;;;5109477;27;20764;-41
2021/08/22 02:38:48;;;;;;;3.90;3.50;;;18.80;99.90;;;;;;5125994;27;20788;-41
2021/08/22 02:41:14;;;;;;;3.63;3.10;;;18.70;99.90;;;;;;5120760;27;20416;-39
2021/08/22 02:43:40;;;;;;;3.47;3.17;;;18.70;99.90;;;;;;5127305;27;20174;-41
2021/08/22 02:46:06;;;;;;;3.47;2.90;;;18.70;99.90;;;;;;5127436;27;20183;-45
2021/08/22 02:48:33;;;;;;;3.97;3.67;;;18.70;99.90;;;;;;5127331;27;20215;-44
2021/08/22 02:50:58;;;;;;;5.00;4.50;;;18.60;99.90;;;;;;5126829;27;20420;-40
2021/08/22 02:53:24;;;;;;;5.20;4.30;;;18.60;99.90;;;;;;5108588;27;20487;-43
2021/08/22 02:55:50;;;;;;;5.07;3.00;;;18.60;99.90;;;;;;5117419;27;20628;-41
2021/08/22 02:58:15;;;;;;;4.20;3.80;;;18.60;99.90;;;;;;5126938;27;20210;-39
2021/08/22 03:00:41;;;;;;;3.33;3.03;;;18.60;99.90;;;;;;5108872;27;20422;-41
2021/08/22 03:03:07;;;;;;;4.37;3.97;;;18.50;99.90;;;;;;5113233;27;20381;-39
2021/08/22 03:05:32;;;;;;;7.00;4.07;;;18.50;99.90;;;;;;5127516;27;20199;-42
2021/08/22 03:07:58;;;;;;;4.13;3.73;;;18.50;99.90;;;;;;5126970;27;20199;-40
2021/08/22 03:10:24;;;;;;;4.30;3.90;;;18.50;99.90;;;;;;5097679;27;20205;-40
2021/08/22 03:12:49;;;;;;;5.00;4.50;;;18.50;99.90;;;;;;5126995;27;20222;-44
2021/08/22 03:15:15;;;;;;;5.27;4.77;;;18.50;99.90;;;;;;5126788;27;20601;-45
2021/08/22 03:17:41;;;;;;;4.63;4.13;;;18.50;99.90;;;;;;5126869;27;20183;-39
2021/08/22 03:20:08;;;;;;;7.83;5.93;;;18.50;99.90;;;;;;5126260;27;20629;-39
2021/08/22 03:22:34;;;;;;;5.50;5.00;;;18.50;99.90;;;;;;5127130;27;20202;-42
2021/08/22 03:25:00;;;;;;;6.77;5.87;;;18.60;99.90;;;;;;5120442;27;20506;-43
2021/08/22 03:27:26;;;;;;;6.97;6.30;;;18.50;99.90;;;;;;5123501;27;20958;-40
2021/08/22 03:29:51;;;;;;;6.63;5.93;;;18.60;99.90;;;;;;5121047;27;20456;-45
2021/08/22 03:32:17;;;;;;;7.50;6.70;;;18.60;99.90;;;;;;5127017;27;20214;-41
2021/08/22 03:34:43;;;;;;;9.97;8.70;;;18.60;99.90;;;;;;5126625;27;20552;-41
2021/08/22 03:37:09;;;;;;;6.23;5.63;;;18.60;99.90;;;;;;5127270;27;20416;-40
2021/08/22 03:39:34;;;;;;;6.20;5.60;;;18.60;99.90;;;;;;5121876;27;20223;-45
2021/08/22 03:42:00;;;;;;;7.17;6.00;;;18.50;99.90;;;;;;5120330;27;20191;-40
2021/08/22 03:44:26;;;;;;;7.23;6.40;;;18.50;99.90;;;;;;5126312;27;20524;-40
2021/08/22 03:46:51;;;;;;;6.43;5.83;;;18.60;99.90;;;;;;5126965;27;20202;-40
2021/08/22 03:49:17;;;;;;;9.37;7.50;;;18.60;99.90;;;;;;5125861;28;20215;-42
2021/08/22 03:51:43;;;;;;;8.60;7.80;;;18.50;99.90;;;;;;5126380;28;20661;-43
2021/08/22 03:54:08;;;;;;;8.83;8.00;;;18.50;99.90;;;;;;5126238;28;20232;-42
2021/08/22 03:56:34;;;;;;;10.83;9.80;;;18.50;99.90;;;;;;5115893;28;20221;-41
2021/08/22 03:59:01;;;;;;;9.37;8.47;;;18.60;99.90;;;;;;5122121;28;20262;-46
2021/08/22 04:01:27;;;;;;;10.40;9.30;;;18.60;99.90;;;;;;5126352;28;20191;-41
2021/08/22 04:03:52;;;;;;;12.00;10.80;;;18.60;99.90;;;;;;5126423;28;20444;-40
2021/08/22 04:06:18;;;;;;;10.27;9.40;;;18.60;99.90;;;;;;5126402;28;20285;-44
2021/08/22 04:08:44;;;;;;;11.40;10.20;;;18.50;99.90;;;;;;5125505;28;20540;-42
2021/08/22 04:11:10;;;;;;;13.10;11.80;;;18.50;99.90;;;;;;5110575;28;20199;-40
2021/08/22 04:13:36;;;;;;;12.63;11.43;;;18.60;99.90;;;;;;5128134;27;20210;-42
2021/08/22 04:16:02;;;;;;;12.70;11.50;;;18.60;99.90;;;;;;5121469;27;20390;-40
2021/08/22 04:18:28;;;;;;;12.60;11.43;;;18.60;99.90;;;;;;5130315;27;20502;-40
2021/08/22 04:20:54;;;;;;;12.17;11.07;;;18.60;99.90;;;;;;5130276;27;20436;-42
2021/08/22 04:23:19;;;;;;;11.60;10.50;;;18.60;99.90;;;;;;5129934;27;20213;-41
2021/08/22 04:25:45;;;;;;;12.47;11.27;;;18.60;99.90;;;;;;5119440;27;20440;-46
2021/08/22 04:28:11;;;;;;;14.53;12.73;;;18.60;99.90;;;;;;5127742;27;20218;-42
2021/08/22 04:30:37;;;;;;;12.93;11.67;;;18.60;99.90;;;;;;5129863;27;20427;-39
2021/08/22 04:33:03;;;;;;;13.20;11.90;;;18.50;99.90;;;;;;5129870;27;20621;-41
2021/08/22 04:35:29;;;;;;;12.83;11.60;;;18.50;99.90;;;;;;5130245;27;20187;-40
2021/08/22 04:37:55;;;;;;;13.20;11.77;;;18.60;99.90;;;;;;5129276;27;20360;-40
2021/08/22 04:40:20;;;;;;;11.13;10.03;;;18.60;99.90;;;;;;5122486;27;20998;-41
2021/08/22 04:42:46;;;;;;;13.07;11.77;;;18.50;99.90;;;;;;5129767;27;20195;-41
2021/08/22 04:45:12;;;;;;;13.03;11.70;;;18.50;99.90;;;;;;5118869;27;20272;-43
2021/08/22 04:47:37;;;;;;;12.13;10.93;;;18.60;99.90;;;;;;5109139;28;20202;-40
2021/08/22 04:50:04;;;;;;;13.13;11.87;;;18.60;99.90;;;;;;5125236;27;20203;-44
2021/08/22 04:52:30;;;;;;;13.00;11.80;;;18.60;99.90;;;;;;5129248;27;20207;-42
2021/08/22 04:54:55;;;;;;;11.53;10.40;;;18.60;99.90;;;;;;5126737;27;20774;-40
2021/08/22 04:57:21;;;;;;;13.03;11.60;;;18.50;99.90;;;;;;5120135;27;20623;-39
2021/08/22 04:59:47;;;;;;;12.10;10.80;;;18.50;99.90;;;;;;5125440;27;20266;-40
2021/08/22 05:02:12;;;;;;;13.23;11.83;;;18.50;99.90;;;;;;5129534;27;20244;-39
2021/08/22 05:04:38;;;;;;;14.57;12.67;;;18.50;99.90;;;;;;5119042;27;20183;-42
2021/08/22 05:07:05;;;;;;;13.90;12.50;;;18.60;99.90;;;;;;5108921;28;20287;-46
2021/08/22 05:09:31;;;;;;;15.60;13.97;;;18.60;99.90;;;;;;5108347;28;20217;-42
2021/08/22 05:11:59;;;;;;;14.43;12.93;;;18.60;99.90;;;;;;5117492;27;20524;-45
2021/08/22 05:14:26;;;;;;;15.03;13.50;;;18.60;99.90;;;;;;5129216;27;20687;-42
2021/08/22 05:16:52;;;;;;;15.00;13.37;;;18.60;99.90;;;;;;5129194;27;20485;-44
2021/08/22 05:19:17;;;;;;;14.60;13.10;;;18.60;99.90;;;;;;5128499;27;20830;-41
2021/08/22 05:21:43;;;;;;;15.30;13.77;;;18.60;99.90;;;;;;5110729;27;20189;-42
2021/08/22 05:24:09;;;;;;;15.23;13.70;;;18.60;99.90;;;;;;5127641;27;20252;-39
2021/08/22 05:26:34;;;;;;;18.73;13.30;;;18.60;99.90;;;;;;5117976;27;20240;-41
2021/08/22 05:29:00;;;;;;;15.73;12.27;;;18.60;99.90;;;;;;5128344;27;20625;-41
2021/08/22 05:31:26;;;;;;;13.43;11.70;;;18.60;99.90;;;;;;5128822;27;20202;-39
2021/08/22 05:33:51;;;;;;;15.23;13.63;;;18.60;99.90;;;;;;5129063;27;20187;-44
2021/08/22 05:36:19;;;;;;;14.53;12.83;;;18.60;99.90;;;;;;5128999;27;20186;-40
2021/08/22 05:38:45;;;;;;;13.90;12.50;;;18.60;99.90;;;;;;5128259;27;20199;-41
2021/08/22 05:41:11;;;;;;;15.20;13.60;;;18.60;99.90;;;;;;5121840;27;20424;-41
2021/08/22 05:43:37;;;;;;;14.50;13.00;;;18.70;99.90;;;;;;5127467;27;20424;-41
2021/08/22 05:46:03;;;;;;;15.33;12.03;;;18.70;99.90;;;;;;5125711;27;20420;-44
2021/08/22 05:48:28;;;;;;;15.37;13.40;;;18.70;99.90;;;;;;5128691;27;20433;-41
2021/08/22 05:50:54;;;;;;;13.90;12.20;;;18.60;99.90;;;;;;5127675;27;20649;-44
2021/08/22 05:53:20;;;;;;;16.33;14.73;;;18.70;99.90;;;;;;5128690;27;20293;-41
2021/08/22 05:55:45;;;;;;;13.47;12.17;;;18.60;99.90;;;;;;5104612;27;20187;-44
2021/08/22 05:58:11;;;;;;;14.43;13.03;;;18.60;99.90;;;;;;5123366;27;20270;-44
2021/08/22 06:00:37;;;;;;;14.70;13.27;;;18.60;99.90;;;;;;5120855;27;20326;-40
2021/08/22 06:03:03;;;;;;;14.17;12.77;;;18.60;99.90;;;;;;5128636;27;20273;-41
2021/08/22 06:05:29;;;;;;;13.50;12.10;;;18.60;99.90;;;;;;5127949;27;20425;-41
2021/08/22 06:07:55;;;;;;;15.60;13.63;;;18.60;99.90;;;;;;5128016;27;20991;-42
2021/08/22 06:10:21;;;;;;;13.47;12.17;;;18.60;99.90;;;;;;5125645;27;20425;-43
2021/08/22 06:12:46;;;;;;;14.60;12.40;;;18.60;99.90;;;;;;5118909;27;20684;-42
2021/08/22 06:15:12;;;;;;;14.83;13.33;;;18.60;99.90;;;;;;5128361;27;20563;-44
2021/08/22 06:17:38;;;;;;;14.87;13.37;;;18.60;99.90;;;;;;5109678;27;20191;-42
2021/08/22 06:20:05;;;;;;;14.03;12.63;;;18.60;99.90;;;;;;5108748;27;20182;-43
2021/08/22 06:22:31;;;;;;;14.10;12.63;;;18.60;99.90;;;;;;5127886;27;20661;-45
2021/08/22 06:24:57;;;;;;;14.90;12.97;;;18.60;99.90;;;;;;5128051;27;20867;-42
2021/08/22 06:27:23;;;;;;;15.43;13.23;;;18.60;99.90;;;;;;5113360;27;20594;-43
2021/08/22 06:29:48;;;;;;;14.17;12.67;;;18.60;99.90;;;;;;5127430;27;20183;-41
2021/08/22 06:32:14;;;;;;;14.80;12.77;;;18.70;99.90;;;;;;5127620;27;20960;-41
2021/08/22 06:34:40;;;;;;;14.97;12.30;;;18.70;99.90;;;;;;5127036;27;20194;-41
2021/08/22 06:37:06;;;;;;;14.70;13.10;;;18.70;99.90;;;;;;5127707;27;20565;-42
2021/08/22 06:39:38;;;;;;;13.90;12.53;;;18.70;99.90;;;;;;5127128;27;20512;-43
2021/08/22 06:42:05;;;;;;;16.20;13.33;;;18.70;99.90;;;;;;5114791;27;20183;-43
2021/08/22 06:44:31;;;;;;;13.87;11.73;;;18.70;99.90;;;;;;5125737;27;20417;-40
2021/08/22 06:46:57;;;;;;;15.90;14.10;;;18.70;99.90;;;;;;5127519;27;20443;-41
2021/08/22 06:49:23;;;;;;;14.77;13.27;;;18.70;99.90;;;;;;5126685;27;20904;-43
2021/08/22 06:51:48;;;;;;;15.97;13.67;;;18.70;99.90;;;;;;5127604;27;20215;-41
2021/08/22 06:54:14;;;;;;;16.03;14.37;;;18.70;99.90;;;;;;5127299;27;20191;-42
2021/08/22 06:56:39;;;;;;;15.87;13.77;;;18.70;99.90;;;;;;5119022;27;20667;-41
2021/08/22 06:59:05;;;;;;;15.93;14.23;;;18.70;99.90;;;;;;5124226;27;20266;-39
2021/08/22 07:01:31;;;;;;;19.57;14.37;;;18.80;99.90;;;;;;5108844;27;20569;-40
2021/08/22 07:03:56;;;;;;;18.83;15.53;;;18.80;99.90;;;;;;5126947;27;20319;-40
2021/08/22 07:06:22;;;;;;;16.20;14.00;;;18.80;99.90;;;;;;5127237;27;20206;-41
2021/08/22 07:08:48;;;;;;;17.90;15.60;;;18.80;99.90;;;;;;5126319;27;20369;-40
2021/08/22 07:11:14;;;;;;;18.23;15.33;;;18.80;99.90;;;;;;5122082;27;20190;-43
2021/08/22 07:13:40;;;;;;;17.77;15.30;;;18.80;99.90;;;;;;5121617;27;20628;-42
2021/08/22 07:16:06;;;;;;;16.20;13.93;;;18.70;99.90;;;;;;5125521;27;20412;-40
2021/08/22 07:18:33;;;;;;;17.10;15.17;;;18.70;99.90;;;;;;5126723;27;20408;-40
2021/08/22 07:20:58;;;;;;;17.03;15.03;;;18.70;99.90;;;;;;5126513;27;20187;-41
2021/08/22 07:23:24;;;;;;;15.93;14.33;;;18.70;99.90;;;;;;5126877;27;20428;-40
2021/08/22 07:25:51;;;;;;;16.20;14.53;;;18.70;99.90;;;;;;5107868;27;20226;-41
2021/08/22 07:28:17;;;;;;;17.70;15.13;;;18.70;99.90;;;;;;5121360;27;20186;-41
2021/08/22 07:30:42;;;;;;;18.27;15.10;;;18.70;99.90;;;;;;5125803;27;20443;-43
2021/08/22 07:33:08;;;;;;;19.43;15.40;;;18.70;99.90;;;;;;5126798;27;20525;-41
2021/08/22 07:35:34;;;;;;;19.30;17.13;;;18.70;99.90;;;;;;5126648;27;20239;-40
2021/08/22 07:37:59;;;;;;;19.07;17.07;;;18.80;99.90;;;;;;5126737;27;20191;-40
2021/08/22 07:40:25;;;;;;;20.60;17.00;;;18.70;99.90;;;;;;5125972;27;20186;-42
2021/08/22 07:42:51;;;;;;;19.17;17.27;;;18.80;99.90;;;;;;5114436;27;20198;-39
2021/08/22 07:45:16;;;;;;;18.67;16.67;;;18.80;99.90;;;;;;5126874;27;20206;-40
2021/08/22 07:47:44;;;;;;;18.10;16.20;;;18.90;99.90;;;;;;5125570;27;20764;-40
2021/08/22 07:50:10;;;;;;;16.27;14.57;;;18.90;99.90;;;;;;5126156;28;20175;-43
2021/08/22 07:52:35;;;;;;;17.07;15.27;;;18.90;99.90;;;;;;5126734;28;20464;-41
2021/08/22 07:55:01;;;;;;;16.93;15.17;;;19.00;99.90;;;;;;5126499;28;20417;-42
2021/08/22 07:57:27;;;;;;;16.87;15.10;;;19.00;99.90;;;;;;5114228;28;20187;-43
2021/08/22 07:59:52;;;;;;;16.47;14.77;;;19.00;99.90;;;;;;5125940;28;20599;-41
2021/08/22 08:02:18;;;;;;;15.67;13.57;;;19.00;99.90;;;;;;5126237;28;20698;-42
2021/08/22 08:04:44;;;;;;;13.47;12.17;;;19.10;99.90;;;;;;5126648;28;20709;-41
2021/08/22 08:07:09;;;;;;;12.93;11.73;;;19.20;99.90;;;;;;5107687;28;20199;-41
2021/08/22 08:09:35;;;;;;;15.40;14.00;;;19.30;99.90;;;;;;5125830;28;20255;-40
2021/08/22 08:12:01;;;;;;;13.43;12.13;;;19.40;99.90;;;;;;5118006;28;20242;-43
2021/08/22 08:14:26;;;;;;;13.30;12.00;;;19.40;99.90;;;;;;5124583;28;20410;-40
2021/08/22 08:16:52;;;;;;;14.13;12.70;;;19.40;99.90;;;;;;5120929;28;20285;-45
2021/08/22 08:19:17;;;;;;;14.03;12.63;;;19.40;99.90;;;;;;5125561;28;20198;-40
2021/08/22 08:21:43;;;;;;;11.40;10.40;;;19.50;99.90;;;;;;5125994;28;20669;-42
2021/08/22 08:24:09;;;;;;;11.10;10.10;;;19.50;99.90;;;;;;5126400;28;20198;-41
2021/08/22 08:26:35;;;;;;;10.20;9.13;;;19.60;99.90;;;;;;5123586;28;20441;-41
2021/08/22 08:29:01;;;;;;;11.97;10.77;;;19.60;99.90;;;;;;5120250;28;20184;-42
2021/08/22 08:31:26;;;;;;;11.07;9.97;;;19.60;99.90;;;;;;5126972;28;20412;-42
2021/08/22 08:33:52;;;;;;;12.17;10.93;;;19.60;99.90;;;;;;5125486;28;20188;-40
2021/08/22 08:36:17;;;;;;;11.80;9.60;;;19.60;99.90;;;;;;5103851;28;20345;-44
2021/08/22 08:38:43;;;;;;;10.93;9.93;;;19.60;99.90;;;;;;5114601;28;20176;-41
2021/08/22 08:41:09;;;;;;;11.50;9.30;;;19.60;99.90;;;;;;5127944;28;20263;-40
2021/08/22 08:43:35;;;;;;;10.47;9.50;;;19.50;99.90;;;;;;5119067;28;20206;-40
2021/08/22 08:46:11;;;;;;;8.63;7.93;;;19.50;99.90;;;;;;5120458;28;20434;-45
2021/08/22 08:48:37;;;;;;;10.37;9.23;;;19.50;99.90;;;;;;5124771;28;20432;-43
2021/08/22 08:51:18;;;;;;;9.63;8.73;;;19.50;99.90;;;;;;5125164;28;20549;-41
2021/08/22 08:53:45;;;;;;;9.53;8.63;;;19.50;99.90;;;;;;5124967;28;20210;-40
2021/08/22 08:56:15;;;;;;;8.20;7.50;;;19.50;99.90;;;;;;5123377;28;20431;-40
2021/08/22 08:58:41;;;;;;;8.47;7.33;;;19.50;99.90;;;;;;5112871;27;20644;-40
2021/08/22 09:01:06;;;;;;;7.50;6.80;;;19.60;99.90;;;;;;5128694;27;20425;-43
2021/08/22 09:03:35;;;;;;;7.27;6.57;;;19.50;99.90;;;;;;5128704;27;20175;-42
2021/08/22 09:06:25;;;;;;;7.40;6.70;;;19.50;99.90;;;;;;5129482;27;20269;-41
2021/08/22 09:09:55;;;;;;;7.50;6.70;;;19.60;99.90;;;;;;5127332;27;20445;-41
2021/08/22 09:12:58;;;;;;;7.37;6.70;;;19.70;99.90;;;;;;4971247;28;20575;-41
2021/08/22 09:15:44;;;;;;;9.07;7.70;;;19.70;99.90;;;;;;5107788;27;20421;-42
2021/08/22 09:18:47;;;;;;;8.50;7.63;;;19.70;99.90;;;;;;5128506;27;20416;-44
2021/08/22 09:21:37;;;;;;;7.30;6.23;;;19.80;99.90;;;;;;5127893;27;20443;-48
2021/08/22 09:24:23;;;;;;;6.17;5.57;;;19.80;99.90;;;;;;5117288;27;20429;-40
2021/08/22 09:27:11;;;;;;;7.10;6.40;;;19.80;99.90;;;;;;5125566;27;20412;-42
2021/08/22 09:30:13;;;;;;;10.77;9.27;;;20.00;99.90;;;;;;5124746;27;20423;-42
2021/08/22 09:33:18;;;;;;;8.27;7.47;;;20.00;99.90;;;;;;5128204;27;20475;-40
2021/08/22 09:36:02;;;;;;;9.50;7.60;;;20.10;99.90;;;;;;5127985;27;20425;-41
2021/08/22 09:39:05;;;;;;;10.40;7.73;;;20.10;99.90;;;;;;5115496;27;20400;-41
2021/08/22 09:41:55;;;;;;;8.07;7.37;;;20.10;99.90;;;;;;5127889;27;20424;-40
2021/08/22 09:44:43;;;;;;;9.27;8.20;;;20.10;99.90;;;;;;5101200;27;20416;-44
2021/08/22 09:47:27;;;;;;;8.30;7.57;;;20.00;99.90;;;;;;5119693;27;20412;-41
2021/08/22 09:50:49;;;;;;;9.73;8.40;;;20.00;99.90;;;;;;5123823;27;20405;-43
2021/08/22 09:53:39;;;;;;;10.20;8.50;;;19.90;99.90;;;;;;5039184;28;20827;-42
2021/08/22 09:56:31;;;;;;;8.00;6.60;;;19.90;99.90;;;;;;5041145;28;20950;-40
2021/08/22 09:59:34;;;;;;;9.03;8.13;;;19.90;99.90;;;;;;5112155;27;20429;-40
2021/08/22 10:02:00;;;;;;;9.80;8.83;;;19.90;99.90;;;;;;5126785;27;20797;-39
2021/08/22 10:04:56;;;;;;;8.97;8.20;;;19.90;99.90;;;;;;5106415;27;20409;-40
2021/08/22 10:07:30;;;;;;;9.90;8.87;;;19.90;99.90;;;;;;5105332;27;20273;-43
2021/08/22 10:10:03;;;;;;;9.87;8.87;;;19.90;99.90;;;;;;5086641;27;20451;-39
2021/08/22 10:12:29;;;;;;;10.10;8.97;;;19.90;99.90;;;;;;5107158;27;20909;-43
2021/08/22 10:14:55;;;;;;;9.93;9.00;;;20.00;99.90;;;;;;5118490;27;20444;-42
2021/08/22 10:17:26;;;;;;;9.00;8.10;;;20.00;99.90;;;;;;5108144;27;20233;-41
2021/08/22 10:19:54;;;;;;;10.30;8.37;;;20.10;99.90;;;;;;5121244;27;20412;-39
2021/08/22 10:22:35;;;;;;;8.57;7.70;;;20.00;99.90;;;;;;5125150;27;20704;-42
2021/08/22 10:25:05;;;;;;;7.20;6.50;;;20.00;99.90;;;;;;5107024;27;20424;-44
2021/08/22 10:27:34;;;;;;;7.87;7.13;;;20.10;99.90;;;;;;5123127;27;20537;-42
2021/08/22 10:30:03;;;;;;;7.47;6.30;;;20.10;99.90;;;;;;5121983;27;20417;-40
2021/08/22 10:32:52;;;;;;;7.63;6.83;;;20.10;99.90;;;;;;5124737;27;20785;-40
2021/08/22 10:35:19;;;;;;;8.00;7.20;;;20.10;99.90;;;;;;5110137;27;20554;-41
2021/08/22 10:37:46;;;;;;;8.10;7.50;;;20.10;99.90;;;;;;5123104;27;20573;-41
2021/08/22 10:40:24;;;;;;;9.60;8.60;;;20.10;99.90;;;;;;5122703;27;20405;-39
2021/08/22 10:43:10;;;;;;;8.73;7.93;;;20.10;99.90;;;;;;5122157;27;20801;-42
2021/08/22 10:45:50;;;;;;;8.50;7.67;;;20.10;99.90;;;;;;5121954;27;20420;-40
2021/08/22 10:48:24;;;;;;;9.30;8.37;;;20.20;99.90;;;;;;5123544;27;20443;-42
2021/08/22 10:50:59;;;;;;;7.67;6.97;;;20.40;99.90;;;;;;5122024;27;20459;-42
2021/08/22 10:53:36;;;;;;;9.50;8.60;;;20.40;99.90;;;;;;5123957;27;20632;-41
2021/08/22 10:56:20;;;;;;;8.03;7.37;;;20.50;99.90;;;;;;5121228;27;20753;-41
2021/08/22 10:58:58;;;;;;;7.97;7.27;;;20.50;99.90;;;;;;5115589;27;21073;-44
2021/08/22 11:01:30;;;;;;;6.67;6.17;;;20.60;99.90;;;;;;5121932;27;20405;-39
2021/08/22 11:04:23;;;;;;;6.67;6.07;;;20.80;99.90;;;;;;5123566;27;20766;-42
2021/08/22 11:07:03;;;;;;;5.97;5.40;;;20.90;99.90;;;;;;5107598;27;20421;-43
2021/08/22 11:09:37;;;;;;;6.47;5.87;;;21.10;99.90;;;;;;5123307;27;20500;-42
2021/08/22 11:12:03;;;;;;;7.80;4.60;;;21.30;99.90;;;;;;5125103;27;20818;-43
2021/08/22 11:14:29;;;;;;;5.30;4.80;;;21.40;99.90;;;;;;5099992;28;20807;-43
2021/08/22 11:16:58;;;;;;;4.30;3.90;;;21.50;99.90;;;;;;5124640;27;20413;-41
2021/08/22 11:19:24;;;;;;;4.87;4.37;;;21.50;99.90;;;;;;5125196;27;20183;-40
2021/08/22 11:21:50;;;;;;;4.53;4.00;;;21.50;99.90;;;;;;5107018;27;20419;-40
2021/08/22 11:24:16;;;;;;;4.10;3.70;;;21.50;99.90;;;;;;5122560;27;20657;-39
2021/08/22 11:26:42;;;;;;;4.90;4.27;;;21.30;99.90;;;;;;5124653;27;20308;-43
2021/08/22 11:29:08;;;;;;;6.53;4.87;;;21.30;99.90;;;;;;5119930;27;20424;-39
2021/08/22 11:31:34;;;;;;;7.17;4.27;;;21.30;99.90;;;;;;5124001;27;20417;-40
2021/08/22 11:34:25;;;;;;;4.80;4.40;;;21.30;99.90;;;;;;5124879;27;20420;-44
2021/08/22 11:36:51;;;;;;;4.73;4.10;;;21.20;99.90;;;;;;5123792;27;20488;-44
2021/08/22 11:39:17;;;;;;;4.73;4.33;;;21.30;99.90;;;;;;5124527;27;20416;-40
2021/08/22 11:41:49;;;;;;;6.70;4.40;;;21.30;99.90;;;;;;5124665;27;20183;-41
2021/08/22 11:44:22;;;;;;;4.23;3.90;;;21.30;99.90;;;;;;5111630;27;20413;-45
2021/08/22 11:46:50;;;;;;;5.40;4.10;;;21.30;99.90;;;;;;5123029;27;20423;-42
2021/08/22 11:49:16;;;;;;;4.40;3.90;;;21.30;99.90;;;;;;5124743;27;20479;-40
2021/08/22 11:51:42;;;;;;;4.90;4.27;;;21.20;99.90;;;;;;5107197;28;20421;-40
2021/08/22 11:54:07;;;;;;;6.00;4.20;;;21.20;99.90;;;;;;5125794;28;20427;-39
2021/08/22 11:56:33;;;;;;;5.03;4.23;;;21.20;99.90;;;;;;5123981;28;20175;-41
2021/08/22 11:58:59;;;;;;;5.03;4.53;;;21.20;99.90;;;;;;5118456;28;20186;-40
2021/08/22 12:01:26;;;;;;;4.80;4.23;;;21.30;99.90;;;;;;5122101;28;20187;-44
2021/08/22 12:04:02;;;;;;;4.77;4.20;;;21.30;99.90;;;;;;5122788;28;20672;-41
2021/08/22 12:06:29;;;;;;;4.67;4.27;;;21.40;99.90;;;;;;5107420;28;20420;-43
2021/08/22 12:08:55;;;;;;;5.30;3.97;;;21.40;99.90;;;;;;5124725;28;20503;-43
2021/08/22 12:11:23;;;;;;;4.30;3.90;;;21.40;99.90;;;;;;5125460;28;20740;-40
2021/08/22 12:13:50;;;;;;;4.60;4.20;;;21.50;99.90;;;;;;5117440;28;20971;-41
2021/08/22 12:16:28;;;;;;;5.13;4.30;;;21.50;99.90;;;;;;5120588;28;20424;-41
2021/08/22 12:18:55;;;;;;;3.90;3.60;;;21.60;99.90;;;;;;5119295;28;20415;-40
2021/08/22 12:21:23;;;;;;;4.40;4.00;;;21.70;99.90;;;;;;5125934;28;20476;-43
2021/08/22 12:23:52;;;;;;;4.63;3.63;;;21.80;99.90;;;;;;5126872;28;20428;-39
2021/08/22 12:26:31;;;;;;;6.03;4.50;;;21.90;99.90;;;;;;5127699;28;21154;-40
2021/08/22 12:28:58;;;;;;;3.53;3.23;;;22.00;99.90;;;;;;5118711;28;20437;-40
2021/08/22 12:31:32;;;;;;;7.60;4.40;;;22.10;99.90;;;;;;5121354;28;20412;-42
2021/08/22 12:34:01;;;;;;;4.97;3.80;;;22.20;99.90;;;;;;5126996;27;20452;-43
2021/08/22 12:36:38;;;;;;;5.23;4.57;;;22.30;99.90;;;;;;5130162;27;20732;-40
2021/08/22 12:39:05;;;;;;;6.07;4.23;;;22.40;99.90;;;;;;5127628;27;20420;-40
2021/08/22 12:41:47;;;;;;;4.30;3.80;;;22.40;99.90;;;;;;5125710;27;20412;-43
2021/08/22 12:44:24;;;;;;;5.17;3.53;;;22.40;99.90;;;;;;5120942;27;20432;-42
2021/08/22 12:46:51;;;;;;;3.97;3.43;;;22.50;99.90;;;;;;5128207;27;20459;-42
2021/08/22 12:49:17;;;;;;;3.60;2.93;;;22.50;99.90;;;;;;5128279;27;20491;-41
2021/08/22 12:51:51;;;;;;;4.60;3.63;;;22.60;99.90;;;;;;5128495;27;20420;-40